createdAt,value
2022-10-14T00:01:32.955Z,43.00
2022-10-14T00:04:04.973Z,44.53
2022-10-14T00:06:36.998Z,46.80
2022-10-14T00:09:09.990Z,46.47
2022-10-14T00:11:41.890Z,52.90
2022-10-14T00:14:16.298Z,52.53
2022-10-14T00:16:49.380Z,47.00
2022-10-14T00:19:21.749Z,48.30
2022-10-14T00:21:55.233Z,50.37
2022-10-14T00:24:27.105Z,46.97
2022-10-14T00:26:58.871Z,46.33
2022-10-14T00:29:30.848Z,46.63
2022-10-14T00:32:03.104Z,44.60
2022-10-14T00:34:35.875Z,47.90
2022-10-14T00:37:09.426Z,50.10
2022-10-14T00:39:41.435Z,48.97
2022-10-14T00:42:15.261Z,41.17
2022-10-14T00:44:47.183Z,46.40
2022-10-14T00:47:19.402Z,42.00
2022-10-14T00:49:51.758Z,51.87
2022-10-14T00:52:24.549Z,50.10
2022-10-14T00:55:01.651Z,52.13
2022-10-14T00:57:35.571Z,56.63
2022-10-14T01:00:13.778Z,48.67
2022-10-14T01:02:47.020Z,52.40
2022-10-14T01:05:19.668Z,50.73
2022-10-14T01:07:59.338Z,48.10
2022-10-14T01:10:42.609Z,51.17
2022-10-14T01:13:27.975Z,44.13
2022-10-14T01:16:17.967Z,50.87
2022-10-14T01:19:20.913Z,49.60
2022-10-14T01:21:56.505Z,51.23
2022-10-14T01:24:44.434Z,44.23
2022-10-14T01:27:39.298Z,50.67
2022-10-14T01:30:22.892Z,44.87
2022-10-14T01:33:06.136Z,55.33
2022-10-14T01:35:56.238Z,50.67
2022-10-14T01:38:43.682Z,43.03
2022-10-14T01:41:25.454Z,46.17
2022-10-14T01:44:02.736Z,43.50
2022-10-14T01:46:37.369Z,41.00
2022-10-14T01:49:23.711Z,46.37
2022-10-14T01:51:59.804Z,48.27
2022-10-14T01:54:35.090Z,46.73
2022-10-14T01:57:13.260Z,44.30
2022-10-14T01:59:46.200Z,42.43
2022-10-14T02:02:23.532Z,47.33
2022-10-14T02:04:55.582Z,50.10
2022-10-14T02:07:36.684Z,43.40
2022-10-14T02:10:47.569Z,51.80
2022-10-14T02:13:29.067Z,54.90
2022-10-14T02:16:10.076Z,51.70
2022-10-14T02:18:52.543Z,54.97
2022-10-14T02:21:37.863Z,47.30
2022-10-14T02:24:32.863Z,53.20
2022-10-14T02:27:07.735Z,54.80
2022-10-14T02:29:42.032Z,49.40
2022-10-14T02:32:17.191Z,56.43
2022-10-14T02:34:52.632Z,56.80
2022-10-14T02:37:26.256Z,54.90
2022-10-14T02:40:03.076Z,48.80
2022-10-14T02:42:35.820Z,54.53
2022-10-14T02:45:10.822Z,46.83
2022-10-14T02:47:43.719Z,52.10
2022-10-14T02:50:15.679Z,48.23
2022-10-14T02:52:47.633Z,57.53
2022-10-14T02:55:19.530Z,63.40
2022-10-14T02:57:51.644Z,55.50
2022-10-14T03:00:24.417Z,54.13
2022-10-14T03:02:57.693Z,57.93
2022-10-14T03:05:31.453Z,52.03
2022-10-14T03:08:03.378Z,53.77
2022-10-14T03:10:37.136Z,53.33
2022-10-14T03:13:09.097Z,60.70
2022-10-14T03:15:49.302Z,64.27
2022-10-14T03:18:22.316Z,54.63
2022-10-14T03:20:57.897Z,53.50
2022-10-14T03:23:36.762Z,50.13
2022-10-14T03:26:13.662Z,55.97
2022-10-14T03:28:48.582Z,63.23
2022-10-14T03:31:25.194Z,61.30
2022-10-14T03:34:15.901Z,70.00
2022-10-14T03:36:48.308Z,52.10
2022-10-14T03:39:21.084Z,54.43
2022-10-14T03:41:55.342Z,52.50
2022-10-14T03:44:36.997Z,48.40
2022-10-14T03:47:22.620Z,51.93
2022-10-14T03:49:54.582Z,58.77
2022-10-14T03:52:36.107Z,59.60
2022-10-14T03:55:15.909Z,52.90
2022-10-14T03:57:50.145Z,56.37
2022-10-14T04:00:22.951Z,61.07
2022-10-14T04:03:06.627Z,60.00
2022-10-14T04:05:43.020Z,69.13
2022-10-14T04:08:19.970Z,61.43
2022-10-14T04:11:00.816Z,57.50
2022-10-14T04:13:37.116Z,59.37
2022-10-14T04:16:10.477Z,58.97
2022-10-14T04:18:58.758Z,59.80
2022-10-14T04:21:30.639Z,54.17
2022-10-14T04:24:08.016Z,51.00
2022-10-14T04:26:52.247Z,56.50
2022-10-14T04:29:36.838Z,57.57
2022-10-14T04:32:16.160Z,57.43
2022-10-14T04:34:48.181Z,59.33
2022-10-14T04:37:23.331Z,59.80
2022-10-14T04:40:25.600Z,52.60
2022-10-14T04:42:59.205Z,59.50
2022-10-14T04:45:40.442Z,60.13
2022-10-14T04:48:15.146Z,58.87
2022-10-14T04:50:53.009Z,64.73
2022-10-14T04:53:47.808Z,58.63
2022-10-14T04:56:37.193Z,63.90
2022-10-14T04:59:10.927Z,64.30
2022-10-14T05:02:18.207Z,63.80
2022-10-14T05:05:02.387Z,65.60
2022-10-14T05:07:38.409Z,65.47
2022-10-14T05:10:25.698Z,59.83
2022-10-14T05:13:00.803Z,61.97
2022-10-14T05:15:36.750Z,73.97
2022-10-14T05:18:13.919Z,70.20
2022-10-14T05:20:59.942Z,74.10
2022-10-14T05:23:45.346Z,71.33
2022-10-14T05:26:17.335Z,65.63
2022-10-14T05:28:52.387Z,69.37
2022-10-14T05:31:25.869Z,63.37
2022-10-14T05:34:06.511Z,66.80
2022-10-14T05:36:38.480Z,76.40
2022-10-14T05:39:11.562Z,70.83
2022-10-14T05:41:44.161Z,76.20
2022-10-14T05:44:16.291Z,64.53
2022-10-14T05:46:49.129Z,64.50
2022-10-14T05:49:21.223Z,62.17
2022-10-14T05:51:53.440Z,62.07
2022-10-14T05:54:28.095Z,62.40
2022-10-14T05:57:01.647Z,75.83
2022-10-14T05:59:34.890Z,61.73
2022-10-14T06:02:08.653Z,56.90
2022-10-14T06:04:42.408Z,64.93
2022-10-14T06:07:15.071Z,71.13
2022-10-14T06:09:47.175Z,61.40
2022-10-14T06:12:19.625Z,64.60
2022-10-14T06:14:52.253Z,66.57
2022-10-14T06:17:24.216Z,60.30
2022-10-14T06:19:56.282Z,57.33
2022-10-14T06:22:28.348Z,57.47
2022-10-14T06:25:04.065Z,65.07
2022-10-14T06:27:36.405Z,60.50
2022-10-14T06:30:08.959Z,58.60
2022-10-14T06:32:40.820Z,58.13
2022-10-14T06:35:13.232Z,56.40
2022-10-14T06:37:46.877Z,62.07
2022-10-14T06:40:18.992Z,61.07
2022-10-14T06:42:51.015Z,53.90
2022-10-14T06:45:23.044Z,58.73
2022-10-14T06:47:54.936Z,54.80
2022-10-14T06:50:26.874Z,64.77
2022-10-14T06:52:58.996Z,59.53
2022-10-14T06:55:30.925Z,59.97
2022-10-14T06:58:02.964Z,65.90
2022-10-14T07:00:34.871Z,64.63
2022-10-14T07:03:07.424Z,69.20
2022-10-14T07:05:39.491Z,62.10
2022-10-14T07:08:14.559Z,68.40
2022-10-14T07:10:48.187Z,60.27
2022-10-14T07:13:20.385Z,62.83
2022-10-14T07:15:52.469Z,57.17
2022-10-14T07:18:24.212Z,60.80
2022-10-14T07:20:59.221Z,56.07
2022-10-14T07:23:31.578Z,71.97
2022-10-14T07:26:03.663Z,63.37
2022-10-14T07:28:35.818Z,61.33
2022-10-14T07:31:10.168Z,58.17
2022-10-14T07:33:42.145Z,66.07
2022-10-14T07:36:18.563Z,71.33
2022-10-14T07:38:53.892Z,64.13
2022-10-14T07:41:26.167Z,67.07
2022-10-14T07:44:05.482Z,63.80
2022-10-14T07:46:41.085Z,61.67
2022-10-14T07:49:18.770Z,64.20
2022-10-14T07:51:51.025Z,60.57
2022-10-14T07:54:26.176Z,63.53
2022-10-14T07:56:59.120Z,57.27
2022-10-14T07:59:31.043Z,62.00
2022-10-14T08:02:04.164Z,58.17
2022-10-14T08:04:36.143Z,56.20
2022-10-14T08:07:08.039Z,52.70
2022-10-14T08:09:40.908Z,46.93
2022-10-14T08:12:13.003Z,49.33
2022-10-14T08:14:44.952Z,48.70
2022-10-14T08:17:17.195Z,59.23
2022-10-14T08:19:51.909Z,49.30
2022-10-14T08:22:24.249Z,48.03
2022-10-14T08:24:56.316Z,50.87
2022-10-14T08:27:28.407Z,52.87
2022-10-14T08:30:00.263Z,54.50
2022-10-14T08:32:32.265Z,47.20
2022-10-14T08:35:04.547Z,48.03
2022-10-14T08:37:36.587Z,44.10
2022-10-14T08:40:12.572Z,42.37
2022-10-14T08:43:00.715Z,39.73
2022-10-14T08:45:37.991Z,56.43
2022-10-14T08:48:13.429Z,49.27
2022-10-14T08:51:06.249Z,41.30
2022-10-14T08:53:42.286Z,43.37
2022-10-14T08:56:14.879Z,45.67
2022-10-14T08:58:49.379Z,37.50
2022-10-14T09:01:33.262Z,41.67
2022-10-14T09:04:06.826Z,51.70
2022-10-14T09:06:41.102Z,45.70
2022-10-14T09:09:17.550Z,38.77
2022-10-14T09:12:00.702Z,45.70
2022-10-14T09:14:36.519Z,38.53
2022-10-14T09:17:19.248Z,38.13
2022-10-14T09:20:06.803Z,40.37
2022-10-14T09:22:38.984Z,39.03
2022-10-14T09:25:15.535Z,38.13
2022-10-14T09:30:24.400Z,36.00
2022-10-14T09:32:56.437Z,40.17
2022-10-14T09:35:35.049Z,36.13
2022-10-14T09:38:07.720Z,34.93
2022-10-14T09:40:47.909Z,38.03
2022-10-14T09:43:21.438Z,36.53
2022-10-14T09:46:03.326Z,38.37
2022-10-14T09:48:39.014Z,36.37
2022-10-14T09:51:19.010Z,38.43
2022-10-14T09:53:53.184Z,41.90
2022-10-14T09:56:41.942Z,36.00
2022-10-14T09:59:23.421Z,36.90
2022-10-14T10:02:01.233Z,35.70
2022-10-14T10:04:36.476Z,38.67
2022-10-14T10:07:23.791Z,36.97
2022-10-14T10:10:05.546Z,38.00
2022-10-14T10:12:41.626Z,37.80
2022-10-14T10:15:19.249Z,37.50
2022-10-14T10:17:51.844Z,35.60
2022-10-14T10:20:36.670Z,41.20
2022-10-14T10:23:25.458Z,40.07
2022-10-14T10:26:15.018Z,35.90
2022-10-14T10:28:49.156Z,32.07
2022-10-14T10:31:58.893Z,33.53
2022-10-14T10:34:42.661Z,35.30
2022-10-14T10:37:28.199Z,37.87
2022-10-14T10:40:24.589Z,30.67
2022-10-14T10:43:14.834Z,32.13
2022-10-14T10:46:05.167Z,31.37
2022-10-14T10:48:46.663Z,30.20
2022-10-14T10:51:38.442Z,32.63
2022-10-14T10:54:31.330Z,32.63
2022-10-14T10:57:30.376Z,33.10
2022-10-14T11:00:13.277Z,34.93
2022-10-14T11:03:01.012Z,33.47
2022-10-14T11:05:43.682Z,40.47
2022-10-14T11:09:05.939Z,33.20
2022-10-14T11:12:13.566Z,31.40
2022-10-14T11:14:49.465Z,42.40
2022-10-14T11:17:49.467Z,31.13
2022-10-14T11:21:00.072Z,32.83
2022-10-14T11:23:35.252Z,34.23
2022-10-14T11:26:26.921Z,34.50
2022-10-14T11:29:12.466Z,31.40
2022-10-14T11:31:53.642Z,31.50
2022-10-14T11:34:35.671Z,33.83
2022-10-14T11:37:27.592Z,34.30
2022-10-14T11:40:32.983Z,31.83
2022-10-14T11:43:22.306Z,30.90
2022-10-14T11:46:08.256Z,39.37
2022-10-14T11:48:45.746Z,29.90
2022-10-14T11:51:35.779Z,28.23
2022-10-14T11:54:17.393Z,35.73
2022-10-14T11:57:01.674Z,32.23
2022-10-14T11:59:50.270Z,29.00
2022-10-14T12:02:34.382Z,30.70
2022-10-14T12:05:14.814Z,32.20
2022-10-14T12:08:16.503Z,33.67
2022-10-14T12:10:53.826Z,31.83
2022-10-14T12:13:32.636Z,29.47
2022-10-14T12:16:16.630Z,28.50
2022-10-14T12:18:56.319Z,36.57
2022-10-14T12:21:36.143Z,28.97
2022-10-14T12:24:14.493Z,23.90
2022-10-14T12:26:51.332Z,26.60
2022-10-14T12:29:31.707Z,21.10
2022-10-14T12:32:03.505Z,23.23
2022-10-14T12:34:38.022Z,25.50
2022-10-14T12:37:50.071Z,25.07
2022-10-14T12:40:24.642Z,19.97
2022-10-14T12:43:00.082Z,18.63
2022-10-14T12:45:34.846Z,17.80
2022-10-14T12:48:20.945Z,16.93
2022-10-14T12:50:58.719Z,14.93
2022-10-14T12:53:32.589Z,17.97
2022-10-14T12:56:04.902Z,15.40
2022-10-14T12:58:57.773Z,14.40
2022-10-14T13:01:33.779Z,15.50
2022-10-14T13:04:28.577Z,20.30
2022-10-14T13:07:42.393Z,15.60
2022-10-14T13:10:45.179Z,19.60
2022-10-14T13:13:53.386Z,17.83
2022-10-14T13:16:25.196Z,18.20
2022-10-14T13:18:58.332Z,19.83
2022-10-14T13:21:52.053Z,17.03
2022-10-14T13:24:29.789Z,21.93
2022-10-14T13:27:42.919Z,17.97
2022-10-14T13:30:34.107Z,17.17
2022-10-14T13:33:18.585Z,17.10
2022-10-14T13:36:03.898Z,18.87
2022-10-14T13:38:38.336Z,19.73
2022-10-14T13:41:16.511Z,20.63
2022-10-14T13:43:48.475Z,17.53
2022-10-14T13:46:39.385Z,22.60
2022-10-14T13:52:04.943Z,21.00
2022-10-14T13:54:36.985Z,18.70
2022-10-14T14:00:38.990Z,19.00
2022-10-14T14:02:57.713Z,19.20
2022-10-14T14:05:35.442Z,23.00
2022-10-14T14:11:17.192Z,16.70
2022-10-14T14:14:01.789Z,16.97
2022-10-14T14:16:36.210Z,18.97
2022-10-14T14:19:19.366Z,21.23
2022-10-14T14:21:51.632Z,22.40
2022-10-14T14:24:25.202Z,16.70
2022-10-14T14:26:57.142Z,19.90
2022-10-14T14:29:32.813Z,21.13
2022-10-14T14:32:07.586Z,21.47
2022-10-14T14:34:43.700Z,20.60
2022-10-14T14:37:54.641Z,18.83
2022-10-14T14:40:30.044Z,23.03
2022-10-14T14:43:03.473Z,25.20
2022-10-14T14:45:41.501Z,22.10
2022-10-14T14:48:15.604Z,22.17
2022-10-14T14:50:48.854Z,21.90
2022-10-14T14:53:22.607Z,23.63
2022-10-14T14:55:54.313Z,23.60
2022-10-14T14:58:44.978Z,23.43
2022-10-14T15:01:23.012Z,23.10
2022-10-14T15:04:12.587Z,24.17
2022-10-14T15:07:07.376Z,23.17
2022-10-14T15:09:44.693Z,25.87
2022-10-14T15:12:22.867Z,23.10
2022-10-14T15:15:02.124Z,24.67
2022-10-14T15:17:39.927Z,20.00
2022-10-14T15:22:52.789Z,23.40
2022-10-14T15:25:31.095Z,24.63
2022-10-14T15:28:03.061Z,24.63
2022-10-14T15:30:41.089Z,21.77
2022-10-14T15:33:20.901Z,22.90
2022-10-14T15:36:01.926Z,21.00
2022-10-14T15:38:33.970Z,21.07
2022-10-14T15:41:06.002Z,21.13
2022-10-14T15:43:39.919Z,25.00
2022-10-14T15:46:31.397Z,21.53
2022-10-14T15:49:05.473Z,25.83
2022-10-14T15:51:37.858Z,23.80
2022-10-14T15:54:12.730Z,25.53
2022-10-14T15:56:44.735Z,22.47
2022-10-14T15:59:17.393Z,23.60
2022-10-14T16:01:49.461Z,24.07
2022-10-14T16:04:24.737Z,21.40
2022-10-14T16:06:57.673Z,25.90
2022-10-14T16:09:29.573Z,21.30
2022-10-14T16:12:01.557Z,24.07
2022-10-14T16:14:33.342Z,27.37
2022-10-14T16:17:06.239Z,22.90
2022-10-14T16:19:39.078Z,27.30
2022-10-14T16:22:12.142Z,20.50
2022-10-14T16:24:44.856Z,22.67
2022-10-14T16:27:16.858Z,24.40
2022-10-14T16:29:48.661Z,22.13
2022-10-14T16:32:20.803Z,20.43
2022-10-14T16:34:54.236Z,20.90
2022-10-14T16:37:26.035Z,25.43
2022-10-14T16:39:58.438Z,19.10
2022-10-14T16:42:30.322Z,20.03
2022-10-14T16:45:02.359Z,19.47
2022-10-14T16:47:34.261Z,18.20
2022-10-14T16:50:07.533Z,21.03
2022-10-14T16:53:00.858Z,17.13
2022-10-14T16:55:35.559Z,17.97
2022-10-14T16:58:07.635Z,17.07
2022-10-14T17:00:40.277Z,24.30
2022-10-14T17:03:15.567Z,25.20
2022-10-14T17:05:49.525Z,24.13
2022-10-14T17:08:22.307Z,21.90
2022-10-14T17:10:58.532Z,20.07
2022-10-14T17:13:30.439Z,19.70
2022-10-14T17:16:04.066Z,18.77
2022-10-14T17:18:36.672Z,19.70
2022-10-14T17:21:13.680Z,19.33
2022-10-14T17:23:45.674Z,21.67
2022-10-14T17:26:18.949Z,19.97
2022-10-14T17:28:51.156Z,19.40
2022-10-14T17:31:23.374Z,19.50
2022-10-14T17:33:55.414Z,21.20
2022-10-14T17:36:30.632Z,21.27
2022-10-14T17:39:02.741Z,20.67
2022-10-14T17:41:34.857Z,19.90
2022-10-14T17:44:06.806Z,22.17
2022-10-14T17:46:38.932Z,22.83
2022-10-14T17:49:11.220Z,18.20
2022-10-14T17:51:43.274Z,21.90
2022-10-14T17:54:15.288Z,19.93
2022-10-14T17:56:47.284Z,17.80
2022-10-14T17:59:19.254Z,20.77
2022-10-14T18:02:06.798Z,19.30
2022-10-14T18:04:39.558Z,17.90
2022-10-14T18:07:12.002Z,21.50
2022-10-14T18:09:43.935Z,17.33
2022-10-14T18:12:19.111Z,25.07
2022-10-14T18:14:50.975Z,16.23
2022-10-14T18:17:24.164Z,18.57
2022-10-14T18:19:56.314Z,16.07
2022-10-14T18:22:28.743Z,21.17
2022-10-14T18:25:00.819Z,18.23
2022-10-14T18:27:33.186Z,17.03
2022-10-14T18:30:05.652Z,17.90
2022-10-14T18:32:37.720Z,15.63
2022-10-14T18:35:09.994Z,15.30
2022-10-14T18:37:42.029Z,20.00
2022-10-14T18:40:16.905Z,14.17
2022-10-14T18:42:48.726Z,16.87
2022-10-14T18:45:20.578Z,16.60
2022-10-14T18:47:52.984Z,18.77
2022-10-14T18:50:24.861Z,18.50
2022-10-14T18:52:56.804Z,11.57
2022-10-14T18:55:28.662Z,13.97
2022-10-14T18:58:00.540Z,11.23
2022-10-14T19:00:33.521Z,11.80
2022-10-14T19:03:05.464Z,16.43
2022-10-14T19:05:37.310Z,12.50
2022-10-14T19:08:09.911Z,12.73
2022-10-14T19:10:42.248Z,14.87
2022-10-14T19:13:14.184Z,11.40
2022-10-14T19:15:51.470Z,14.53
2022-10-14T19:18:25.457Z,11.87
2022-10-14T19:21:09.399Z,12.13
2022-10-14T19:23:43.650Z,13.27
2022-10-14T19:26:18.288Z,10.93
2022-10-14T19:28:52.111Z,10.80
2022-10-14T19:31:26.283Z,13.90
2022-10-14T19:34:01.560Z,14.30
2022-10-14T19:36:35.881Z,14.17
2022-10-14T19:39:09.803Z,14.03
2022-10-14T19:41:46.654Z,13.67
2022-10-14T19:44:19.021Z,11.97
2022-10-14T19:46:50.975Z,11.53
2022-10-14T19:49:22.987Z,15.90
2022-10-14T19:51:55.098Z,10.00
2022-10-14T19:54:27.282Z,13.23
2022-10-14T19:56:59.295Z,9.97
2022-10-14T19:59:31.196Z,11.10
2022-10-14T20:02:03.193Z,9.93
2022-10-14T20:04:35.185Z,9.17
2022-10-14T20:07:07.131Z,10.83
2022-10-14T20:09:39.445Z,8.50
2022-10-14T20:12:11.259Z,9.93
2022-10-14T20:14:43.242Z,11.33
2022-10-14T20:17:15.203Z,9.50
2022-10-14T20:19:47.167Z,9.50
2022-10-14T20:22:19.061Z,10.90
2022-10-14T20:24:51.849Z,10.57
2022-10-14T20:27:24.075Z,14.70
2022-10-14T20:29:56.419Z,10.60
2022-10-14T20:32:28.292Z,8.90
2022-10-14T20:35:00.270Z,10.27
2022-10-14T20:37:32.768Z,13.40
2022-10-14T20:40:05.185Z,9.53
2022-10-14T20:42:37.050Z,10.73
2022-10-14T20:45:09.305Z,11.30
2022-10-14T20:47:41.129Z,12.30
2022-10-14T20:50:13.284Z,11.10
2022-10-14T20:52:45.410Z,10.63
2022-10-14T20:55:17.339Z,9.50
2022-10-14T20:57:49.350Z,8.90
2022-10-14T21:00:21.145Z,9.20
2022-10-14T21:02:53.066Z,8.47
2022-10-14T21:05:25.407Z,9.50
2022-10-14T21:07:57.436Z,8.80
2022-10-14T21:10:29.402Z,11.60
2022-10-14T21:13:01.510Z,9.20
2022-10-14T21:15:33.382Z,8.27
2022-10-14T21:18:05.741Z,11.00
2022-10-14T21:20:37.660Z,8.37
2022-10-14T21:23:09.651Z,7.40
2022-10-14T21:25:42.299Z,11.90
2022-10-14T21:28:14.143Z,10.27
2022-10-14T21:30:46.063Z,9.33
2022-10-14T21:33:18.007Z,8.57
2022-10-14T21:35:49.988Z,9.70
2022-10-14T21:38:22.018Z,10.37
2022-10-14T21:40:53.875Z,10.53
2022-10-14T21:43:27.308Z,8.00
2022-10-14T21:46:06.355Z,10.13
2022-10-14T21:48:38.552Z,9.83
2022-10-14T21:51:12.984Z,10.33
2022-10-14T21:53:45.870Z,9.90
2022-10-14T21:56:17.961Z,10.20
2022-10-14T21:58:49.962Z,11.40
2022-10-14T22:01:26.156Z,9.20
2022-10-14T22:04:01.491Z,8.90
2022-10-14T22:06:34.802Z,13.23
2022-10-14T22:09:07.619Z,10.20
2022-10-14T22:11:40.911Z,9.73
2022-10-14T22:14:17.463Z,12.43
2022-10-14T22:16:49.631Z,9.53
2022-10-14T22:19:21.374Z,9.73
2022-10-14T22:21:54.254Z,11.03
2022-10-14T22:24:26.231Z,10.70
2022-10-14T22:27:00.767Z,11.37
2022-10-14T22:29:32.684Z,9.17
2022-10-14T22:32:04.813Z,10.83
2022-10-14T22:34:36.572Z,10.73
2022-10-14T22:37:08.446Z,10.93
2022-10-14T22:39:40.575Z,11.30
2022-10-14T22:42:12.542Z,11.53
2022-10-14T22:44:44.510Z,10.40
2022-10-14T22:47:16.385Z,10.63
2022-10-14T22:49:48.422Z,11.43
2022-10-14T22:52:20.580Z,12.33
2022-10-14T22:54:52.639Z,14.57
2022-10-14T22:57:24.964Z,14.53
2022-10-14T22:59:57.057Z,11.13
2022-10-14T23:02:29.256Z,13.43
2022-10-14T23:05:01.563Z,17.10
2022-10-14T23:07:33.552Z,18.40
2022-10-14T23:10:06.093Z,14.37
2022-10-14T23:12:38.099Z,11.20
2022-10-14T23:15:10.278Z,13.20
2022-10-14T23:17:42.364Z,11.60
2022-10-14T23:20:14.892Z,15.33
2022-10-14T23:22:46.885Z,12.03
2022-10-14T23:25:18.850Z,13.10
2022-10-14T23:30:27.567Z,14.80
2022-10-14T23:32:59.381Z,17.13
2022-10-14T23:35:31.815Z,14.60
2022-10-14T23:38:04.293Z,12.70
2022-10-14T23:40:36.126Z,14.60
2022-10-14T23:43:08.891Z,16.47
2022-10-14T23:45:40.984Z,15.00
2022-10-14T23:48:12.873Z,14.97
2022-10-14T23:50:44.697Z,16.50
2022-10-14T23:53:16.922Z,16.00
2022-10-14T23:55:50.017Z,13.57
2022-10-14T23:58:23.201Z,15.00
